Terminal Aerodrome Forecast
Issued by NWS Northern Indiana

Home | Current Version | Previous Version | Graphics & Text | Print | Product List | Glossary Off
Versions: 1 2 3 4 5 6 7 8 9 10 11 12 13 14 15 16

000
FTUS43 KIWX 252300
TAFFWA
TAF
KFWA 252320Z 2600/2624 22008KT P6SM BKN025
     FM260200 19010KT P6SM SCT250
     FM260700 20010KT P6SM SCT250 WS020/23040KT
     FM261400 20013KT P6SM BKN200=

USA.gov is the U.S. government's official web portal to all federal, state and local government web resources and services.